sensor_id;sensor_type;location;lat;lon;timestamp;P1;durP1;ratioP1;P2;durP2;ratioP2
20810;SDS011;10566;52.928;10.522;2023-04-03T00:02:20;6.30;;;1.90;;
20810;SDS011;10566;52.928;10.522;2023-04-03T00:04:46;6.87;;;1.90;;
20810;SDS011;10566;52.928;10.522;2023-04-03T00:07:12;10.43;;;2.17;;
20810;SDS011;10566;52.928;10.522;2023-04-03T00:09:39;8.33;;;2.10;;
20810;SDS011;10566;52.928;10.522;2023-04-03T00:12:05;11.80;;;2.20;;
20810;SDS011;10566;52.928;10.522;2023-04-03T00:14:31;7.23;;;2.33;;
20810;SDS011;10566;52.928;10.522;2023-04-03T00:16:57;7.30;;;1.93;;
20810;SDS011;10566;52.928;10.522;2023-04-03T00:19:23;10.40;;;2.17;;
20810;SDS011;10566;52.928;10.522;2023-04-03T00:21:49;9.27;;;2.33;;
20810;SDS011;10566;52.928;10.522;2023-04-03T00:24:15;6.53;;;2.07;;
20810;SDS011;10566;52.928;10.522;2023-04-03T00:26:41;8.13;;;2.17;;
20810;SDS011;10566;52.928;10.522;2023-04-03T00:29:10;11.70;;;2.80;;
20810;SDS011;10566;52.928;10.522;2023-04-03T00:31:36;8.77;;;2.47;;
20810;SDS011;10566;52.928;10.522;2023-04-03T00:34:03;11.13;;;2.30;;
20810;SDS011;10566;52.928;10.522;2023-04-03T00:36:29;8.40;;;2.33;;
20810;SDS011;10566;52.928;10.522;2023-04-03T00:38:58;7.80;;;2.20;;
20810;SDS011;10566;52.928;10.522;2023-04-03T00:41:27;7.87;;;1.97;;
20810;SDS011;10566;52.928;10.522;2023-04-03T00:43:53;8.80;;;2.37;;
20810;SDS011;10566;52.928;10.522;2023-04-03T00:46:19;12.13;;;2.30;;
20810;SDS011;10566;52.928;10.522;2023-04-03T00:48:46;14.47;;;2.10;;
20810;SDS011;10566;52.928;10.522;2023-04-03T00:51:14;8.30;;;1.93;;
20810;SDS011;10566;52.928;10.522;2023-04-03T00:56:17;6.80;;;1.70;;
20810;SDS011;10566;52.928;10.522;2023-04-03T00:58:59;12.37;;;2.20;;
20810;SDS011;10566;52.928;10.522;2023-04-03T01:01:29;8.93;;;2.10;;
20810;SDS011;10566;52.928;10.522;2023-04-03T01:03:55;6.87;;;1.47;;
20810;SDS011;10566;52.928;10.522;2023-04-03T01:06:29;6.10;;;1.67;;
20810;SDS011;10566;52.928;10.522;2023-04-03T01:08:57;10.60;;;1.73;;
20810;SDS011;10566;52.928;10.522;2023-04-03T01:11:26;8.30;;;1.70;;
20810;SDS011;10566;52.928;10.522;2023-04-03T01:13:54;7.27;;;1.60;;
20810;SDS011;10566;52.928;10.522;2023-04-03T01:16:26;8.90;;;1.97;;
20810;SDS011;10566;52.928;10.522;2023-04-03T01:18:55;7.67;;;1.70;;
20810;SDS011;10566;52.928;10.522;2023-04-03T01:21:39;8.67;;;1.60;;
20810;SDS011;10566;52.928;10.522;2023-04-03T01:24:20;7.57;;;1.73;;
20810;SDS011;10566;52.928;10.522;2023-04-03T01:26:48;10.50;;;2.00;;
20810;SDS011;10566;52.928;10.522;2023-04-03T01:29:15;7.33;;;2.33;;
20810;SDS011;10566;52.928;10.522;2023-04-03T01:31:52;9.93;;;1.97;;
20810;SDS011;10566;52.928;10.522;2023-04-03T01:34:18;11.70;;;1.93;;
20810;SDS011;10566;52.928;10.522;2023-04-03T01:36:44;8.53;;;2.13;;
20810;SDS011;10566;52.928;10.522;2023-04-03T01:39:11;6.87;;;2.07;;
20810;SDS011;10566;52.928;10.522;2023-04-03T01:41:37;10.73;;;2.20;;
20810;SDS011;10566;52.928;10.522;2023-04-03T01:44:03;10.63;;;2.20;;
20810;SDS011;10566;52.928;10.522;2023-04-03T01:46:29;8.57;;;2.27;;
20810;SDS011;10566;52.928;10.522;2023-04-03T01:48:56;10.17;;;2.90;;
20810;SDS011;10566;52.928;10.522;2023-04-03T01:51:22;9.97;;;2.27;;
20810;SDS011;10566;52.928;10.522;2023-04-03T01:53:48;10.50;;;2.80;;
20810;SDS011;10566;52.928;10.522;2023-04-03T01:56:14;11.10;;;2.53;;
20810;SDS011;10566;52.928;10.522;2023-04-03T01:58:40;9.83;;;2.37;;
20810;SDS011;10566;52.928;10.522;2023-04-03T02:01:13;13.60;;;2.30;;
20810;SDS011;10566;52.928;10.522;2023-04-03T02:03:39;9.33;;;2.27;;
20810;SDS011;10566;52.928;10.522;2023-04-03T02:06:06;9.30;;;2.40;;
20810;SDS011;10566;52.928;10.522;2023-04-03T02:08:35;8.03;;;2.10;;
20810;SDS011;10566;52.928;10.522;2023-04-03T02:11:01;9.03;;;2.10;;
20810;SDS011;10566;52.928;10.522;2023-04-03T02:13:28;8.23;;;2.10;;
20810;SDS011;10566;52.928;10.522;2023-04-03T02:15:54;10.23;;;2.30;;
20810;SDS011;10566;52.928;10.522;2023-04-03T02:18:20;13.07;;;2.57;;
20810;SDS011;10566;52.928;10.522;2023-04-03T02:20:46;8.10;;;2.83;;
20810;SDS011;10566;52.928;10.522;2023-04-03T02:23:12;12.43;;;2.63;;
20810;SDS011;10566;52.928;10.522;2023-04-03T02:25:38;8.03;;;2.17;;
20810;SDS011;10566;52.928;10.522;2023-04-03T02:28:05;13.97;;;2.67;;
20810;SDS011;10566;52.928;10.522;2023-04-03T02:30:31;9.43;;;2.70;;
20810;SDS011;10566;52.928;10.522;2023-04-03T02:32:57;14.50;;;2.63;;
20810;SDS011;10566;52.928;10.522;2023-04-03T02:35:23;8.03;;;2.50;;
20810;SDS011;10566;52.928;10.522;2023-04-03T02:37:49;11.67;;;2.67;;
20810;SDS011;10566;52.928;10.522;2023-04-03T02:40:17;13.47;;;2.70;;
20810;SDS011;10566;52.928;10.522;2023-04-03T02:42:43;11.53;;;2.70;;
20810;SDS011;10566;52.928;10.522;2023-04-03T02:45:10;15.10;;;2.70;;
20810;SDS011;10566;52.928;10.522;2023-04-03T02:47:36;9.63;;;2.60;;
20810;SDS011;10566;52.928;10.522;2023-04-03T02:50:02;8.83;;;2.60;;
20810;SDS011;10566;52.928;10.522;2023-04-03T02:52:28;10.53;;;2.70;;
20810;SDS011;10566;52.928;10.522;2023-04-03T02:54:54;11.47;;;2.90;;
20810;SDS011;10566;52.928;10.522;2023-04-03T02:57:20;11.47;;;2.93;;
20810;SDS011;10566;52.928;10.522;2023-04-03T02:59:47;8.63;;;2.67;;
20810;SDS011;10566;52.928;10.522;2023-04-03T03:02:13;11.67;;;2.93;;
20810;SDS011;10566;52.928;10.522;2023-04-03T03:04:39;15.30;;;2.90;;
20810;SDS011;10566;52.928;10.522;2023-04-03T03:07:05;14.80;;;3.20;;
20810;SDS011;10566;52.928;10.522;2023-04-03T03:09:31;12.03;;;3.23;;
20810;SDS011;10566;52.928;10.522;2023-04-03T03:11:57;14.07;;;2.97;;
20810;SDS011;10566;52.928;10.522;2023-04-03T03:14:26;12.63;;;2.67;;
20810;SDS011;10566;52.928;10.522;2023-04-03T03:16:52;17.23;;;2.87;;
20810;SDS011;10566;52.928;10.522;2023-04-03T03:19:18;11.97;;;2.70;;
20810;SDS011;10566;52.928;10.522;2023-04-03T03:21:44;12.80;;;2.87;;
20810;SDS011;10566;52.928;10.522;2023-04-03T03:24:10;14.87;;;3.60;;
20810;SDS011;10566;52.928;10.522;2023-04-03T03:26:37;14.90;;;3.00;;
20810;SDS011;10566;52.928;10.522;2023-04-03T03:29:03;14.40;;;3.57;;
20810;SDS011;10566;52.928;10.522;2023-04-03T03:31:29;15.40;;;3.83;;
20810;SDS011;10566;52.928;10.522;2023-04-03T03:33:55;15.87;;;3.50;;
20810;SDS011;10566;52.928;10.522;2023-04-03T03:36:21;10.70;;;3.87;;
20810;SDS011;10566;52.928;10.522;2023-04-03T03:38:47;11.20;;;3.20;;
20810;SDS011;10566;52.928;10.522;2023-04-03T03:41:14;12.37;;;3.37;;
20810;SDS011;10566;52.928;10.522;2023-04-03T03:43:40;8.27;;;2.77;;
20810;SDS011;10566;52.928;10.522;2023-04-03T03:46:06;16.33;;;3.70;;
20810;SDS011;10566;52.928;10.522;2023-04-03T03:48:32;14.83;;;3.53;;
20810;SDS011;10566;52.928;10.522;2023-04-03T03:50:58;10.47;;;3.10;;
20810;SDS011;10566;52.928;10.522;2023-04-03T03:53:24;13.50;;;3.20;;
20810;SDS011;10566;52.928;10.522;2023-04-03T03:55:50;13.90;;;3.10;;
20810;SDS011;10566;52.928;10.522;2023-04-03T03:58:16;15.67;;;3.67;;
20810;SDS011;10566;52.928;10.522;2023-04-03T04:00:42;12.20;;;3.23;;
20810;SDS011;10566;52.928;10.522;2023-04-03T04:03:08;10.30;;;2.93;;
20810;SDS011;10566;52.928;10.522;2023-04-03T04:05:34;11.97;;;3.20;;
20810;SDS011;10566;52.928;10.522;2023-04-03T04:08:00;15.70;;;3.40;;
20810;SDS011;10566;52.928;10.522;2023-04-03T04:10:26;14.47;;;3.60;;
20810;SDS011;10566;52.928;10.522;2023-04-03T04:12:53;12.70;;;3.30;;
20810;SDS011;10566;52.928;10.522;2023-04-03T04:15:19;9.00;;;2.83;;
20810;SDS011;10566;52.928;10.522;2023-04-03T04:17:46;14.60;;;3.20;;
20810;SDS011;10566;52.928;10.522;2023-04-03T04:20:12;12.83;;;4.03;;
20810;SDS011;10566;52.928;10.522;2023-04-03T04:22:38;25.30;;;9.87;;
20810;SDS011;10566;52.928;10.522;2023-04-03T04:25:04;23.17;;;10.70;;
20810;SDS011;10566;52.928;10.522;2023-04-03T04:27:30;20.13;;;9.20;;
20810;SDS011;10566;52.928;10.522;2023-04-03T04:29:56;17.07;;;7.57;;
20810;SDS011;10566;52.928;10.522;2023-04-03T04:32:22;20.53;;;8.53;;
20810;SDS011;10566;52.928;10.522;2023-04-03T04:34:48;26.07;;;13.87;;
20810;SDS011;10566;52.928;10.522;2023-04-03T04:37:14;26.00;;;12.77;;
20810;SDS011;10566;52.928;10.522;2023-04-03T04:39:40;20.90;;;10.20;;
20810;SDS011;10566;52.928;10.522;2023-04-03T04:42:06;20.97;;;8.07;;
20810;SDS011;10566;52.928;10.522;2023-04-03T04:44:37;18.80;;;7.17;;
20810;SDS011;10566;52.928;10.522;2023-04-03T04:47:03;14.77;;;5.70;;
20810;SDS011;10566;52.928;10.522;2023-04-03T04:49:29;14.90;;;5.53;;
20810;SDS011;10566;52.928;10.522;2023-04-03T04:51:55;14.13;;;5.17;;
20810;SDS011;10566;52.928;10.522;2023-04-03T04:54:21;13.70;;;5.00;;
20810;SDS011;10566;52.928;10.522;2023-04-03T04:56:47;15.83;;;5.03;;
20810;SDS011;10566;52.928;10.522;2023-04-03T04:59:13;11.50;;;5.10;;
20810;SDS011;10566;52.928;10.522;2023-04-03T05:01:39;14.53;;;5.27;;
20810;SDS011;10566;52.928;10.522;2023-04-03T05:04:05;12.67;;;5.40;;
20810;SDS011;10566;52.928;10.522;2023-04-03T05:06:31;14.83;;;5.50;;
20810;SDS011;10566;52.928;10.522;2023-04-03T05:08:59;10.47;;;4.43;;
20810;SDS011;10566;52.928;10.522;2023-04-03T05:11:25;12.57;;;4.57;;
20810;SDS011;10566;52.928;10.522;2023-04-03T05:13:52;12.57;;;4.30;;
20810;SDS011;10566;52.928;10.522;2023-04-03T05:16:18;18.47;;;4.10;;
20810;SDS011;10566;52.928;10.522;2023-04-03T05:18:43;12.27;;;4.57;;
20810;SDS011;10566;52.928;10.522;2023-04-03T05:21:09;10.43;;;3.90;;
20810;SDS011;10566;52.928;10.522;2023-04-03T05:23:35;13.40;;;3.83;;
20810;SDS011;10566;52.928;10.522;2023-04-03T05:26:01;15.33;;;4.00;;
20810;SDS011;10566;52.928;10.522;2023-04-03T05:28:28;10.33;;;3.50;;
20810;SDS011;10566;52.928;10.522;2023-04-03T05:30:55;14.97;;;3.73;;
20810;SDS011;10566;52.928;10.522;2023-04-03T05:33:21;11.17;;;3.53;;
20810;SDS011;10566;52.928;10.522;2023-04-03T05:35:47;17.73;;;3.67;;
20810;SDS011;10566;52.928;10.522;2023-04-03T05:38:13;12.23;;;3.80;;
20810;SDS011;10566;52.928;10.522;2023-04-03T05:40:39;11.47;;;3.47;;
20810;SDS011;10566;52.928;10.522;2023-04-03T05:43:06;12.83;;;3.80;;
20810;SDS011;10566;52.928;10.522;2023-04-03T05:45:32;14.47;;;3.50;;
20810;SDS011;10566;52.928;10.522;2023-04-03T05:47:58;13.47;;;3.70;;
20810;SDS011;10566;52.928;10.522;2023-04-03T05:50:24;13.77;;;4.30;;
20810;SDS011;10566;52.928;10.522;2023-04-03T05:52:50;15.43;;;4.30;;
20810;SDS011;10566;52.928;10.522;2023-04-03T05:55:16;18.00;;;4.60;;
20810;SDS011;10566;52.928;10.522;2023-04-03T05:57:42;13.43;;;4.07;;
20810;SDS011;10566;52.928;10.522;2023-04-03T06:00:11;11.17;;;4.10;;
20810;SDS011;10566;52.928;10.522;2023-04-03T06:02:38;13.00;;;4.80;;
20810;SDS011;10566;52.928;10.522;2023-04-03T06:05:04;15.23;;;4.30;;
20810;SDS011;10566;52.928;10.522;2023-04-03T06:07:31;14.83;;;5.10;;
20810;SDS011;10566;52.928;10.522;2023-04-03T06:09:57;13.57;;;5.20;;
20810;SDS011;10566;52.928;10.522;2023-04-03T06:12:23;16.37;;;4.90;;
20810;SDS011;10566;52.928;10.522;2023-04-03T06:14:49;11.87;;;4.83;;
20810;SDS011;10566;52.928;10.522;2023-04-03T06:17:16;12.90;;;4.77;;
20810;SDS011;10566;52.928;10.522;2023-04-03T06:19:42;15.77;;;5.00;;
20810;SDS011;10566;52.928;10.522;2023-04-03T06:22:08;15.93;;;5.13;;
20810;SDS011;10566;52.928;10.522;2023-04-03T06:24:36;11.47;;;5.37;;
20810;SDS011;10566;52.928;10.522;2023-04-03T06:27:02;15.93;;;4.70;;
20810;SDS011;10566;52.928;10.522;2023-04-03T06:29:28;11.63;;;4.10;;
20810;SDS011;10566;52.928;10.522;2023-04-03T06:31:55;12.70;;;3.47;;
20810;SDS011;10566;52.928;10.522;2023-04-03T06:34:21;14.20;;;4.07;;
20810;SDS011;10566;52.928;10.522;2023-04-03T06:36:47;9.50;;;3.27;;
20810;SDS011;10566;52.928;10.522;2023-04-03T06:39:22;11.37;;;3.97;;
20810;SDS011;10566;52.928;10.522;2023-04-03T06:41:49;9.07;;;2.90;;
20810;SDS011;10566;52.928;10.522;2023-04-03T06:44:15;8.83;;;2.60;;
20810;SDS011;10566;52.928;10.522;2023-04-03T06:46:42;8.70;;;2.03;;
20810;SDS011;10566;52.928;10.522;2023-04-03T06:49:08;8.10;;;2.40;;
20810;SDS011;10566;52.928;10.522;2023-04-03T06:51:35;10.40;;;1.90;;
20810;SDS011;10566;52.928;10.522;2023-04-03T06:54:01;8.63;;;2.00;;
20810;SDS011;10566;52.928;10.522;2023-04-03T06:56:28;10.77;;;2.47;;
20810;SDS011;10566;52.928;10.522;2023-04-03T06:58:54;6.00;;;2.10;;
20810;SDS011;10566;52.928;10.522;2023-04-03T07:01:22;6.37;;;1.70;;
20810;SDS011;10566;52.928;10.522;2023-04-03T07:03:49;8.63;;;2.20;;
20810;SDS011;10566;52.928;10.522;2023-04-03T07:06:16;8.93;;;2.23;;
20810;SDS011;10566;52.928;10.522;2023-04-03T07:08:43;7.90;;;1.80;;
20810;SDS011;10566;52.928;10.522;2023-04-03T07:11:10;10.07;;;1.80;;
20810;SDS011;10566;52.928;10.522;2023-04-03T07:13:37;7.90;;;1.77;;
20810;SDS011;10566;52.928;10.522;2023-04-03T07:16:03;4.83;;;1.50;;
20810;SDS011;10566;52.928;10.522;2023-04-03T07:18:30;6.43;;;1.50;;
20810;SDS011;10566;52.928;10.522;2023-04-03T07:20:56;6.33;;;1.60;;
20810;SDS011;10566;52.928;10.522;2023-04-03T07:23:22;6.93;;;1.40;;
20810;SDS011;10566;52.928;10.522;2023-04-03T07:25:49;6.40;;;1.20;;
20810;SDS011;10566;52.928;10.522;2023-04-03T07:28:16;6.10;;;1.57;;
20810;SDS011;10566;52.928;10.522;2023-04-03T07:30:47;5.97;;;1.27;;
20810;SDS011;10566;52.928;10.522;2023-04-03T07:33:14;6.13;;;1.27;;
20810;SDS011;10566;52.928;10.522;2023-04-03T07:35:41;5.20;;;1.10;;
20810;SDS011;10566;52.928;10.522;2023-04-03T07:38:07;7.00;;;1.20;;
20810;SDS011;10566;52.928;10.522;2023-04-03T07:40:33;5.87;;;1.57;;
20810;SDS011;10566;52.928;10.522;2023-04-03T07:43:00;6.37;;;1.90;;
20810;SDS011;10566;52.928;10.522;2023-04-03T07:45:26;6.03;;;1.40;;
20810;SDS011;10566;52.928;10.522;2023-04-03T07:47:52;6.93;;;1.47;;
20810;SDS011;10566;52.928;10.522;2023-04-03T07:50:18;5.30;;;1.30;;
20810;SDS011;10566;52.928;10.522;2023-04-03T07:52:45;5.63;;;1.30;;
20810;SDS011;10566;52.928;10.522;2023-04-03T07:55:11;4.20;;;1.03;;
20810;SDS011;10566;52.928;10.522;2023-04-03T07:57:37;6.40;;;1.20;;
20810;SDS011;10566;52.928;10.522;2023-04-03T08:00:04;6.23;;;1.20;;
20810;SDS011;10566;52.928;10.522;2023-04-03T08:02:30;6.67;;;1.20;;
20810;SDS011;10566;52.928;10.522;2023-04-03T08:04:57;8.17;;;1.20;;
20810;SDS011;10566;52.928;10.522;2023-04-03T08:07:23;5.70;;;1.20;;
20810;SDS011;10566;52.928;10.522;2023-04-03T08:09:49;5.03;;;1.00;;
20810;SDS011;10566;52.928;10.522;2023-04-03T08:12:15;5.53;;;1.17;;
20810;SDS011;10566;52.928;10.522;2023-04-03T08:14:41;4.70;;;1.13;;
20810;SDS011;10566;52.928;10.522;2023-04-03T08:17:08;5.67;;;1.40;;
20810;SDS011;10566;52.928;10.522;2023-04-03T08:19:36;6.33;;;1.20;;
20810;SDS011;10566;52.928;10.522;2023-04-03T08:22:02;6.40;;;1.17;;
20810;SDS011;10566;52.928;10.522;2023-04-03T08:24:29;5.07;;;1.30;;
20810;SDS011;10566;52.928;10.522;2023-04-03T08:26:56;5.17;;;1.47;;
20810;SDS011;10566;52.928;10.522;2023-04-03T08:29:22;6.87;;;1.30;;
20810;SDS011;10566;52.928;10.522;2023-04-03T08:31:48;7.20;;;1.23;;
20810;SDS011;10566;52.928;10.522;2023-04-03T08:34:15;5.93;;;0.90;;
20810;SDS011;10566;52.928;10.522;2023-04-03T08:36:41;6.50;;;1.00;;
20810;SDS011;10566;52.928;10.522;2023-04-03T08:39:07;6.10;;;1.10;;
20810;SDS011;10566;52.928;10.522;2023-04-03T08:41:34;5.13;;;0.90;;
20810;SDS011;10566;52.928;10.522;2023-04-03T08:44:17;5.77;;;1.07;;
20810;SDS011;10566;52.928;10.522;2023-04-03T08:49:26;4.17;;;1.00;;
20810;SDS011;10566;52.928;10.522;2023-04-03T08:51:54;3.83;;;1.00;;
20810;SDS011;10566;52.928;10.522;2023-04-03T08:55:04;4.17;;;1.10;;
20810;SDS011;10566;52.928;10.522;2023-04-03T08:57:10;3.80;;;0.90;;
20810;SDS011;10566;52.928;10.522;2023-04-03T08:59:37;3.13;;;0.80;;
20810;SDS011;10566;52.928;10.522;2023-04-03T09:02:21;4.40;;;1.17;;
20810;SDS011;10566;52.928;10.522;2023-04-03T09:04:49;5.60;;;0.97;;
20810;SDS011;10566;52.928;10.522;2023-04-03T09:07:22;3.73;;;0.97;;
20810;SDS011;10566;52.928;10.522;2023-04-03T09:09:50;3.07;;;0.80;;
20810;SDS011;10566;52.928;10.522;2023-04-03T09:12:23;4.43;;;0.90;;
20810;SDS011;10566;52.928;10.522;2023-04-03T09:22:38;3.23;;;1.13;;
20810;SDS011;10566;52.928;10.522;2023-04-03T09:25:10;5.97;;;1.30;;
20810;SDS011;10566;52.928;10.522;2023-04-03T09:27:38;3.50;;;0.80;;
20810;SDS011;10566;52.928;10.522;2023-04-03T09:30:05;4.63;;;1.10;;
20810;SDS011;10566;52.928;10.522;2023-04-03T09:32:33;5.50;;;1.00;;
20810;SDS011;10566;52.928;10.522;2023-04-03T09:35:03;6.17;;;0.97;;
20810;SDS011;10566;52.928;10.522;2023-04-03T09:37:38;4.40;;;0.70;;
20810;SDS011;10566;52.928;10.522;2023-04-03T09:40:05;4.03;;;1.00;;
20810;SDS011;10566;52.928;10.522;2023-04-03T09:42:31;5.20;;;1.10;;
20810;SDS011;10566;52.928;10.522;2023-04-03T09:47:28;3.97;;;1.00;;
20810;SDS011;10566;52.928;10.522;2023-04-03T09:52:43;5.53;;;1.00;;
20810;SDS011;10566;52.928;10.522;2023-04-03T09:55:25;6.13;;;0.90;;
20810;SDS011;10566;52.928;10.522;2023-04-03T09:58:02;4.53;;;1.20;;
20810;SDS011;10566;52.928;10.522;2023-04-03T10:00:30;4.77;;;1.10;;
20810;SDS011;10566;52.928;10.522;2023-04-03T10:02:58;2.27;;;0.80;;
20810;SDS011;10566;52.928;10.522;2023-04-03T10:07:50;4.03;;;0.90;;
20810;SDS011;10566;52.928;10.522;2023-04-03T10:10:18;5.40;;;1.27;;
20810;SDS011;10566;52.928;10.522;2023-04-03T10:12:45;5.33;;;0.87;;
20810;SDS011;10566;52.928;10.522;2023-04-03T10:15:15;5.90;;;0.83;;
20810;SDS011;10566;52.928;10.522;2023-04-03T10:17:51;2.80;;;0.70;;
20810;SDS011;10566;52.928;10.522;2023-04-03T10:28:56;3.40;;;0.80;;
20810;SDS011;10566;52.928;10.522;2023-04-03T10:30:54;3.13;;;0.90;;
20810;SDS011;10566;52.928;10.522;2023-04-03T10:36:02;4.90;;;0.80;;
20810;SDS011;10566;52.928;10.522;2023-04-03T10:41:34;2.50;;;0.70;;
20810;SDS011;10566;52.928;10.522;2023-04-03T10:46:41;5.33;;;1.00;;
20810;SDS011;10566;52.928;10.522;2023-04-03T10:49:19;5.23;;;1.60;;
20810;SDS011;10566;52.928;10.522;2023-04-03T10:51:48;5.20;;;1.23;;
20810;SDS011;10566;52.928;10.522;2023-04-03T10:54:22;4.57;;;0.90;;
20810;SDS011;10566;52.928;10.522;2023-04-03T10:56:51;4.97;;;0.90;;
20810;SDS011;10566;52.928;10.522;2023-04-03T10:59:32;3.40;;;1.20;;
20810;SDS011;10566;52.928;10.522;2023-04-03T11:02:42;1.67;;;0.60;;
20810;SDS011;10566;52.928;10.522;2023-04-03T11:04:48;3.33;;;0.80;;
20810;SDS011;10566;52.928;10.522;2023-04-03T11:07:26;6.33;;;1.57;;
20810;SDS011;10566;52.928;10.522;2023-04-03T11:09:57;3.13;;;0.60;;
20810;SDS011;10566;52.928;10.522;2023-04-03T11:12:26;5.80;;;0.97;;
20810;SDS011;10566;52.928;10.522;2023-04-03T11:14:55;2.70;;;0.70;;
20810;SDS011;10566;52.928;10.522;2023-04-03T11:17:27;5.13;;;0.93;;
20810;SDS011;10566;52.928;10.522;2023-04-03T11:20:00;3.00;;;0.80;;
20810;SDS011;10566;52.928;10.522;2023-04-03T11:22:27;6.43;;;0.83;;
20810;SDS011;10566;52.928;10.522;2023-04-03T11:27:33;4.13;;;0.70;;
20810;SDS011;10566;52.928;10.522;2023-04-03T11:30:00;3.20;;;0.90;;
20810;SDS011;10566;52.928;10.522;2023-04-03T11:34:53;3.53;;;1.00;;
20810;SDS011;10566;52.928;10.522;2023-04-03T11:39:56;4.77;;;0.73;;
20810;SDS011;10566;52.928;10.522;2023-04-03T11:42:25;2.73;;;0.90;;
20810;SDS011;10566;52.928;10.522;2023-04-03T11:47:47;4.67;;;1.10;;
20810;SDS011;10566;52.928;10.522;2023-04-03T11:50:38;3.83;;;0.97;;
20810;SDS011;10566;52.928;10.522;2023-04-03T12:08:26;4.00;;;0.90;;
20810;SDS011;10566;52.928;10.522;2023-04-03T12:13:41;3.73;;;0.90;;
20810;SDS011;10566;52.928;10.522;2023-04-03T12:16:24;5.73;;;1.50;;
20810;SDS011;10566;52.928;10.522;2023-04-03T12:22:04;3.60;;;1.30;;
20810;SDS011;10566;52.928;10.522;2023-04-03T12:35:14;5.97;;;1.07;;
20810;SDS011;10566;52.928;10.522;2023-04-03T12:42:56;4.77;;;1.10;;
20810;SDS011;10566;52.928;10.522;2023-04-03T12:45:26;2.47;;;0.80;;
20810;SDS011;10566;52.928;10.522;2023-04-03T12:47:53;6.07;;;1.20;;
20810;SDS011;10566;52.928;10.522;2023-04-03T12:50:30;4.60;;;1.10;;
20810;SDS011;10566;52.928;10.522;2023-04-03T12:53:05;4.50;;;1.03;;
20810;SDS011;10566;52.928;10.522;2023-04-03T12:55:31;5.30;;;1.10;;
20810;SDS011;10566;52.928;10.522;2023-04-03T12:58:12;4.37;;;1.13;;
20810;SDS011;10566;52.928;10.522;2023-04-03T13:00:38;5.80;;;1.20;;
20810;SDS011;10566;52.928;10.522;2023-04-03T13:03:05;6.63;;;1.10;;
20810;SDS011;10566;52.928;10.522;2023-04-03T13:05:31;3.63;;;1.17;;
20810;SDS011;10566;52.928;10.522;2023-04-03T13:08:01;5.23;;;1.10;;
20810;SDS011;10566;52.928;10.522;2023-04-03T13:10:28;4.30;;;1.07;;
20810;SDS011;10566;52.928;10.522;2023-04-03T13:12:57;4.43;;;1.23;;
20810;SDS011;10566;52.928;10.522;2023-04-03T13:15:26;6.77;;;1.10;;
20810;SDS011;10566;52.928;10.522;2023-04-03T13:17:52;7.13;;;1.20;;
20810;SDS011;10566;52.928;10.522;2023-04-03T13:25:17;4.60;;;1.00;;
20810;SDS011;10566;52.928;10.522;2023-04-03T13:27:45;2.83;;;0.77;;
20810;SDS011;10566;52.928;10.522;2023-04-03T13:30:30;7.33;;;1.40;;
20810;SDS011;10566;52.928;10.522;2023-04-03T13:32:58;5.73;;;1.20;;
20810;SDS011;10566;52.928;10.522;2023-04-03T13:35:26;4.27;;;1.17;;
20810;SDS011;10566;52.928;10.522;2023-04-03T13:37:56;4.67;;;1.13;;
20810;SDS011;10566;52.928;10.522;2023-04-03T13:40:22;5.00;;;1.40;;
20810;SDS011;10566;52.928;10.522;2023-04-03T13:42:58;6.33;;;1.23;;
20810;SDS011;10566;52.928;10.522;2023-04-03T13:45:26;5.37;;;1.50;;
20810;SDS011;10566;52.928;10.522;2023-04-03T13:48:10;4.93;;;1.20;;
20810;SDS011;10566;52.928;10.522;2023-04-03T13:50:57;3.37;;;1.00;;
20810;SDS011;10566;52.928;10.522;2023-04-03T13:53:24;6.80;;;1.23;;
20810;SDS011;10566;52.928;10.522;2023-04-03T13:56:04;2.93;;;1.23;;
20810;SDS011;10566;52.928;10.522;2023-04-03T13:58:31;4.63;;;1.63;;
20810;SDS011;10566;52.928;10.522;2023-04-03T14:01:09;6.77;;;1.30;;
20810;SDS011;10566;52.928;10.522;2023-04-03T14:06:13;4.10;;;1.20;;
20810;SDS011;10566;52.928;10.522;2023-04-03T14:08:39;6.07;;;1.20;;
20810;SDS011;10566;52.928;10.522;2023-04-03T14:11:08;5.53;;;1.30;;
20810;SDS011;10566;52.928;10.522;2023-04-03T14:13:34;4.40;;;1.40;;
20810;SDS011;10566;52.928;10.522;2023-04-03T14:16:00;4.77;;;1.10;;
20810;SDS011;10566;52.928;10.522;2023-04-03T14:18:26;5.67;;;1.17;;
20810;SDS011;10566;52.928;10.522;2023-04-03T14:20:52;6.60;;;1.47;;
20810;SDS011;10566;52.928;10.522;2023-04-03T14:23:18;7.23;;;1.90;;
20810;SDS011;10566;52.928;10.522;2023-04-03T14:25:45;8.23;;;2.30;;
20810;SDS011;10566;52.928;10.522;2023-04-03T14:28:16;5.37;;;1.70;;
20810;SDS011;10566;52.928;10.522;2023-04-03T14:30:42;5.73;;;1.30;;
20810;SDS011;10566;52.928;10.522;2023-04-03T14:33:10;5.47;;;1.57;;
20810;SDS011;10566;52.928;10.522;2023-04-03T14:35:38;5.37;;;1.70;;
20810;SDS011;10566;52.928;10.522;2023-04-03T14:38:05;5.57;;;1.40;;
20810;SDS011;10566;52.928;10.522;2023-04-03T14:40:37;6.87;;;2.63;;
20810;SDS011;10566;52.928;10.522;2023-04-03T14:43:05;4.13;;;1.27;;
20810;SDS011;10566;52.928;10.522;2023-04-03T14:45:31;4.90;;;1.90;;
20810;SDS011;10566;52.928;10.522;2023-04-03T14:47:57;4.00;;;1.20;;
20810;SDS011;10566;52.928;10.522;2023-04-03T14:50:25;4.40;;;1.23;;
20810;SDS011;10566;52.928;10.522;2023-04-03T14:52:53;4.70;;;1.33;;
20810;SDS011;10566;52.928;10.522;2023-04-03T14:55:20;3.80;;;1.00;;
20810;SDS011;10566;52.928;10.522;2023-04-03T14:57:46;6.53;;;1.27;;
20810;SDS011;10566;52.928;10.522;2023-04-03T15:00:16;4.70;;;1.10;;
20810;SDS011;10566;52.928;10.522;2023-04-03T15:02:43;5.13;;;1.30;;
20810;SDS011;10566;52.928;10.522;2023-04-03T15:05:10;5.43;;;1.17;;
20810;SDS011;10566;52.928;10.522;2023-04-03T15:07:41;3.73;;;1.13;;
20810;SDS011;10566;52.928;10.522;2023-04-03T15:10:15;3.97;;;1.40;;
20810;SDS011;10566;52.928;10.522;2023-04-03T15:12:41;4.63;;;1.60;;
20810;SDS011;10566;52.928;10.522;2023-04-03T15:15:08;4.97;;;1.20;;
20810;SDS011;10566;52.928;10.522;2023-04-03T15:17:34;4.23;;;1.17;;
20810;SDS011;10566;52.928;10.522;2023-04-03T15:20:01;4.17;;;1.10;;
20810;SDS011;10566;52.928;10.522;2023-04-03T15:22:27;5.00;;;1.20;;
20810;SDS011;10566;52.928;10.522;2023-04-03T15:24:53;3.90;;;1.00;;
20810;SDS011;10566;52.928;10.522;2023-04-03T15:27:19;3.47;;;1.10;;
20810;SDS011;10566;52.928;10.522;2023-04-03T15:29:45;6.07;;;1.20;;
20810;SDS011;10566;52.928;10.522;2023-04-03T15:32:11;3.50;;;1.10;;
20810;SDS011;10566;52.928;10.522;2023-04-03T15:34:37;4.07;;;1.20;;
20810;SDS011;10566;52.928;10.522;2023-04-03T15:37:04;4.67;;;1.47;;
20810;SDS011;10566;52.928;10.522;2023-04-03T15:39:30;4.53;;;1.13;;
20810;SDS011;10566;52.928;10.522;2023-04-03T15:41:56;4.23;;;1.00;;
20810;SDS011;10566;52.928;10.522;2023-04-03T15:44:28;6.13;;;1.13;;
20810;SDS011;10566;52.928;10.522;2023-04-03T15:46:54;4.03;;;1.00;;
20810;SDS011;10566;52.928;10.522;2023-04-03T15:49:20;5.30;;;1.37;;
20810;SDS011;10566;52.928;10.522;2023-04-03T15:51:47;4.50;;;1.13;;
20810;SDS011;10566;52.928;10.522;2023-04-03T15:54:13;4.10;;;1.17;;
20810;SDS011;10566;52.928;10.522;2023-04-03T15:56:39;4.83;;;1.30;;
20810;SDS011;10566;52.928;10.522;2023-04-03T15:59:05;5.37;;;1.20;;
20810;SDS011;10566;52.928;10.522;2023-04-03T16:01:31;4.53;;;1.23;;
20810;SDS011;10566;52.928;10.522;2023-04-03T16:03:57;4.57;;;1.27;;
20810;SDS011;10566;52.928;10.522;2023-04-03T16:06:24;4.67;;;1.43;;
20810;SDS011;10566;52.928;10.522;2023-04-03T16:08:50;4.73;;;1.17;;